createdAt,value
2017-08-04T00:01:33.347Z,22.60
2017-08-04T00:04:01.880Z,22.60
2017-08-04T00:06:30.975Z,22.50
2017-08-04T00:08:59.298Z,22.50
2017-08-04T00:11:27.560Z,22.50
2017-08-04T00:13:55.806Z,22.50
2017-08-04T00:16:24.118Z,22.50
2017-08-04T00:18:52.823Z,22.50
2017-08-04T00:21:21.429Z,22.50
2017-08-04T00:23:50.590Z,22.40
2017-08-04T00:26:19.025Z,22.40
2017-08-04T00:28:47.310Z,22.50
2017-08-04T00:31:15.561Z,22.40
2017-08-04T00:33:45.735Z,22.40
2017-08-04T00:36:13.981Z,22.30
2017-08-04T00:38:42.990Z,22.30
2017-08-04T00:41:11.247Z,22.30
2017-08-04T00:43:39.565Z,22.30
2017-08-04T00:46:07.904Z,22.20
2017-08-04T00:48:36.992Z,22.20
2017-08-04T00:51:06.008Z,22.20
2017-08-04T00:53:34.268Z,22.20
2017-08-04T00:56:03.101Z,22.20
2017-08-04T00:58:31.587Z,22.10
2017-08-04T01:00:59.799Z,22.10
2017-08-04T01:03:28.076Z,22.10
2017-08-04T01:05:56.454Z,22.10
2017-08-04T01:08:24.722Z,22.10
2017-08-04T01:10:53.790Z,22.10
2017-08-04T01:13:22.082Z,22.10
2017-08-04T01:15:50.313Z,22.10
2017-08-04T01:18:18.617Z,22.10
2017-08-04T01:20:47.989Z,22.10
2017-08-04T01:23:16.265Z,22.10
2017-08-04T01:25:45.886Z,22.10
2017-08-04T01:28:14.284Z,22.10
2017-08-04T01:30:43.372Z,22.10
2017-08-04T01:33:12.524Z,22.10
2017-08-04T01:35:40.822Z,22.10
2017-08-04T01:38:09.060Z,22.20
2017-08-04T01:40:38.221Z,22.20
2017-08-04T01:43:06.903Z,22.10
2017-08-04T01:45:35.344Z,22.20
2017-08-04T01:48:03.604Z,22.20
2017-08-04T01:50:32.010Z,22.10
2017-08-04T01:53:01.464Z,22.10
2017-08-04T01:55:30.631Z,22.00
2017-08-04T01:57:59.073Z,22.00
2017-08-04T02:00:27.492Z,22.00
2017-08-04T02:02:55.751Z,22.00
2017-08-04T02:05:24.248Z,21.90
2017-08-04T02:07:52.491Z,21.90
2017-08-04T02:10:20.743Z,21.90
2017-08-04T02:12:49.131Z,21.80
2017-08-04T02:15:17.391Z,21.70
2017-08-04T02:17:45.784Z,21.70
2017-08-04T02:20:14.037Z,21.60
2017-08-04T02:22:42.733Z,21.60
2017-08-04T02:25:11.220Z,21.50
2017-08-04T02:27:39.520Z,21.50
2017-08-04T02:30:07.958Z,21.40
2017-08-04T02:32:37.137Z,21.30
2017-08-04T02:35:05.637Z,21.30
2017-08-04T02:37:33.889Z,21.20
2017-08-04T02:40:02.950Z,21.20
2017-08-04T02:42:31.212Z,21.20
2017-08-04T02:44:59.495Z,21.20
2017-08-04T02:47:27.930Z,21.20
2017-08-04T02:49:58.335Z,21.20
2017-08-04T02:52:27.388Z,21.10
2017-08-04T02:54:55.650Z,21.10
2017-08-04T02:57:23.967Z,21.10
2017-08-04T02:59:52.219Z,21.20
2017-08-04T03:02:20.692Z,21.20
2017-08-04T03:04:48.943Z,21.30
2017-08-04T03:07:17.239Z,21.30
2017-08-04T03:09:46.646Z,21.40
2017-08-04T03:12:14.977Z,21.40
2017-08-04T03:14:43.987Z,21.30
2017-08-04T03:17:12.640Z,21.30
2017-08-04T03:19:40.925Z,21.40
2017-08-04T03:22:09.302Z,21.40
2017-08-04T03:24:38.702Z,21.50
2017-08-04T03:27:06.997Z,21.50
2017-08-04T03:29:35.544Z,21.50
2017-08-04T03:32:04.534Z,21.40
2017-08-04T03:34:33.527Z,21.40
2017-08-04T03:37:01.754Z,21.30
2017-08-04T03:39:35.690Z,21.30
2017-08-04T03:42:04.000Z,21.30
2017-08-04T03:44:33.037Z,21.20
2017-08-04T03:47:01.570Z,21.20
2017-08-04T03:49:30.599Z,21.20
2017-08-04T03:51:58.874Z,21.20
2017-08-04T03:54:27.116Z,21.20
2017-08-04T03:56:56.179Z,21.20
2017-08-04T03:59:24.414Z,21.20
2017-08-04T04:01:52.742Z,21.30
2017-08-04T04:04:20.990Z,21.20
2017-08-04T04:06:49.248Z,21.20
2017-08-04T04:09:17.647Z,21.30
2017-08-04T04:11:46.058Z,21.30
2017-08-04T04:14:14.726Z,21.30
2017-08-04T04:16:42.997Z,21.20
2017-08-04T04:19:11.266Z,21.30
2017-08-04T04:21:39.555Z,21.30
2017-08-04T04:24:07.946Z,21.20
2017-08-04T04:26:36.376Z,21.30
2017-08-04T04:29:04.699Z,21.30
2017-08-04T04:31:33.146Z,21.30
2017-08-04T04:34:01.414Z,21.20
2017-08-04T04:36:29.687Z,21.30
2017-08-04T04:38:58.119Z,21.30
2017-08-04T04:41:26.342Z,21.30
2017-08-04T04:43:54.621Z,21.40
2017-08-04T04:46:22.909Z,21.40
2017-08-04T04:48:51.155Z,21.40
2017-08-04T04:51:20.180Z,21.40
2017-08-04T04:53:48.696Z,21.40
2017-08-04T04:56:16.975Z,21.40
2017-08-04T04:58:45.374Z,21.50
2017-08-04T05:01:13.652Z,21.60
2017-08-04T05:03:41.897Z,21.60
2017-08-04T05:06:10.918Z,21.60
2017-08-04T05:08:39.165Z,21.60
2017-08-04T05:11:07.702Z,21.70
2017-08-04T05:13:36.223Z,21.70
2017-08-04T05:16:05.939Z,21.80
2017-08-04T05:18:35.280Z,21.80
2017-08-04T05:21:06.541Z,22.00
2017-08-04T05:23:36.060Z,22.00
2017-08-04T05:26:06.308Z,22.10
2017-08-04T05:28:34.946Z,22.30
2017-08-04T05:31:05.854Z,22.70
2017-08-04T05:33:34.097Z,22.80
2017-08-04T05:36:02.356Z,22.90
2017-08-04T05:38:30.672Z,22.90
2017-08-04T05:40:59.708Z,22.90
2017-08-04T05:43:28.450Z,22.90
2017-08-04T05:45:57.698Z,22.90
2017-08-04T05:48:26.954Z,23.00
2017-08-04T05:50:55.250Z,23.00
2017-08-04T05:53:24.379Z,23.10
2017-08-04T05:55:55.057Z,23.10
2017-08-04T05:58:25.039Z,23.00
2017-08-04T06:00:58.681Z,23.00
2017-08-04T06:03:28.162Z,23.00
2017-08-04T06:06:01.517Z,23.00
2017-08-04T06:08:34.595Z,22.80
2017-08-04T06:11:03.791Z,22.80
2017-08-04T06:13:36.340Z,22.80
2017-08-04T06:16:12.090Z,22.90
2017-08-04T06:18:40.515Z,22.80
2017-08-04T06:21:11.098Z,22.80
2017-08-04T06:23:40.987Z,22.80
2017-08-04T06:26:09.509Z,22.70
2017-08-04T06:28:38.511Z,22.70
2017-08-04T06:31:08.237Z,22.70
2017-08-04T06:33:36.547Z,22.70
2017-08-04T06:36:05.576Z,22.90
2017-08-04T06:38:33.888Z,22.90
2017-08-04T06:41:02.271Z,22.90
2017-08-04T06:43:32.366Z,23.00
2017-08-04T06:46:00.802Z,23.10
2017-08-04T06:48:44.797Z,23.10
2017-08-04T06:51:34.528Z,23.10
2017-08-04T06:54:16.230Z,23.40
2017-08-04T06:56:48.164Z,23.50
2017-08-04T06:59:17.229Z,23.40
2017-08-04T07:01:45.774Z,23.50
2017-08-04T07:04:14.058Z,23.70
2017-08-04T07:06:45.914Z,23.70
2017-08-04T07:09:19.292Z,23.70
2017-08-04T07:11:47.527Z,23.60
2017-08-04T07:14:15.829Z,23.70
2017-08-04T07:16:44.048Z,23.90
2017-08-04T07:19:12.348Z,24.20
2017-08-04T07:21:40.620Z,24.50
2017-08-04T07:24:09.035Z,24.90
2017-08-04T07:26:37.308Z,25.20
2017-08-04T07:29:05.568Z,25.30
2017-08-04T07:31:33.819Z,25.30
2017-08-04T07:34:02.068Z,25.30
2017-08-04T07:36:31.065Z,25.40
2017-08-04T07:38:59.444Z,25.40
2017-08-04T07:41:27.892Z,25.40
2017-08-04T07:43:56.230Z,25.20
2017-08-04T07:46:25.091Z,25.00
2017-08-04T07:48:53.393Z,24.80
2017-08-04T07:51:21.797Z,24.70
2017-08-04T07:53:50.041Z,25.10
2017-08-04T07:56:18.571Z,25.80
2017-08-04T07:58:47.969Z,26.90
2017-08-04T08:01:16.263Z,26.80
2017-08-04T08:03:46.040Z,26.80
2017-08-04T08:06:14.613Z,26.70
2017-08-04T08:08:42.932Z,26.70
2017-08-04T08:11:11.952Z,27.00
2017-08-04T08:13:40.225Z,27.00
2017-08-04T08:16:09.224Z,27.10
2017-08-04T08:18:37.833Z,27.10
2017-08-04T08:21:06.113Z,27.30
2017-08-04T08:23:34.352Z,27.60
2017-08-04T08:26:02.621Z,27.60
2017-08-04T08:28:31.203Z,27.60
2017-08-04T08:30:59.616Z,27.40
2017-08-04T08:33:27.865Z,27.40
2017-08-04T08:35:56.149Z,27.10
2017-08-04T08:38:24.415Z,27.20
2017-08-04T08:40:52.796Z,27.20
2017-08-04T08:43:21.037Z,27.30
2017-08-04T08:45:49.487Z,27.50
2017-08-04T08:48:17.700Z,27.80
2017-08-04T08:50:46.765Z,27.90
2017-08-04T08:53:15.005Z,27.90
2017-08-04T08:55:43.855Z,27.60
2017-08-04T08:58:13.851Z,27.10
2017-08-04T09:00:43.561Z,27.10
2017-08-04T09:03:11.967Z,27.00
2017-08-04T09:05:40.259Z,26.60
2017-08-04T09:08:08.547Z,26.30
2017-08-04T09:10:36.830Z,26.10
2017-08-04T09:13:05.077Z,25.90
2017-08-04T09:15:33.486Z,25.80
2017-08-04T09:18:01.756Z,25.80
2017-08-04T09:20:29.984Z,25.60
2017-08-04T09:22:59.050Z,25.40
2017-08-04T09:25:27.357Z,25.40
2017-08-04T09:27:56.559Z,25.80
2017-08-04T09:30:24.797Z,25.80
2017-08-04T09:32:53.168Z,26.00
2017-08-04T09:35:21.457Z,25.90
2017-08-04T09:37:49.765Z,26.10
2017-08-04T09:40:18.841Z,26.00
2017-08-04T09:42:47.444Z,26.00
2017-08-04T09:45:15.721Z,26.00
2017-08-04T09:47:44.072Z,26.10
2017-08-04T09:50:13.087Z,26.40
2017-08-04T09:52:42.464Z,26.40
2017-08-04T09:55:12.174Z,26.40
2017-08-04T09:57:40.509Z,26.30
2017-08-04T10:00:08.968Z,26.40
2017-08-04T10:02:37.440Z,26.40
2017-08-04T10:05:06.606Z,26.10
2017-08-04T10:07:34.910Z,26.10
2017-08-04T10:10:03.197Z,26.10
2017-08-04T10:12:31.860Z,26.10
2017-08-04T10:15:01.454Z,26.20
2017-08-04T10:17:29.681Z,26.40
2017-08-04T10:19:58.213Z,26.40
2017-08-04T10:22:26.497Z,26.60
2017-08-04T10:24:55.982Z,27.30
2017-08-04T10:27:24.200Z,27.30
2017-08-04T10:29:52.710Z,27.60
2017-08-04T10:32:21.014Z,28.00
2017-08-04T10:34:49.279Z,28.20
2017-08-04T10:37:17.972Z,28.50
2017-08-04T10:39:46.238Z,28.90
2017-08-04T10:42:14.493Z,29.20
2017-08-04T10:44:42.779Z,29.40
2017-08-04T10:47:11.056Z,29.60
2017-08-04T10:49:40.378Z,29.60
2017-08-04T10:52:08.739Z,29.60
2017-08-04T10:54:37.065Z,29.90
2017-08-04T10:57:05.323Z,30.00
2017-08-04T10:59:35.785Z,30.00
2017-08-04T11:02:04.036Z,30.00
2017-08-04T11:04:33.274Z,30.50
2017-08-04T11:07:01.634Z,30.40
2017-08-04T11:09:30.747Z,30.60
2017-08-04T11:11:59.257Z,30.50
2017-08-04T11:14:27.650Z,30.80
2017-08-04T11:16:56.198Z,31.10
2017-08-04T11:19:24.576Z,31.80
2017-08-04T11:21:52.848Z,32.20
2017-08-04T11:24:21.292Z,31.80
2017-08-04T11:26:50.336Z,30.60
2017-08-04T11:29:18.641Z,30.70
2017-08-04T11:31:47.669Z,29.40
2017-08-04T11:34:15.919Z,29.40
2017-08-04T11:36:44.281Z,29.20
2017-08-04T11:39:12.646Z,28.90
2017-08-04T11:41:41.125Z,28.70
2017-08-04T11:44:09.459Z,29.20
2017-08-04T11:46:38.194Z,30.20
2017-08-04T11:49:06.453Z,30.70
2017-08-04T11:51:35.872Z,31.50
2017-08-04T11:54:04.612Z,31.50
2017-08-04T11:56:33.404Z,31.30
2017-08-04T11:59:02.102Z,31.50
2017-08-04T12:01:32.451Z,31.70
2017-08-04T12:04:00.852Z,31.20
2017-08-04T12:06:30.257Z,30.80
2017-08-04T12:08:59.489Z,29.90
2017-08-04T12:11:30.900Z,29.90
2017-08-04T12:13:59.590Z,30.00
2017-08-04T12:16:28.630Z,29.90
2017-08-04T12:18:56.988Z,29.70
2017-08-04T12:21:25.598Z,29.30
2017-08-04T12:23:56.994Z,29.10
2017-08-04T12:26:26.324Z,28.80
2017-08-04T12:28:54.867Z,28.90
2017-08-04T12:31:23.322Z,28.80
2017-08-04T12:33:51.672Z,28.60
2017-08-04T12:36:21.800Z,28.40
2017-08-04T12:38:51.100Z,28.20
2017-08-04T12:41:24.550Z,28.20
2017-08-04T12:43:54.505Z,28.10
2017-08-04T12:46:22.776Z,28.10
2017-08-04T12:48:51.309Z,28.50
2017-08-04T12:51:21.128Z,28.50
2017-08-04T12:53:49.651Z,28.50
2017-08-04T12:56:17.908Z,28.30
2017-08-04T12:58:46.173Z,28.30
2017-08-04T13:01:14.421Z,28.30
2017-08-04T13:03:44.028Z,28.10
2017-08-04T13:06:12.316Z,28.10
2017-08-04T13:08:41.437Z,27.90
2017-08-04T13:11:09.731Z,27.90
2017-08-04T13:13:38.016Z,27.80
2017-08-04T13:16:06.240Z,28.20
2017-08-04T13:18:35.285Z,28.40
2017-08-04T13:21:03.878Z,28.40
2017-08-04T13:23:32.310Z,28.10
2017-08-04T13:26:01.301Z,27.80
2017-08-04T13:28:29.807Z,27.80
2017-08-04T13:30:58.194Z,27.70
2017-08-04T13:33:26.448Z,27.50
2017-08-04T13:35:54.730Z,27.50
2017-08-04T13:38:28.741Z,27.30
2017-08-04T13:40:57.015Z,27.20
2017-08-04T13:43:25.361Z,27.10
2017-08-04T13:45:54.451Z,26.90
2017-08-04T13:48:23.864Z,27.00
2017-08-04T13:50:52.667Z,26.90
2017-08-04T13:53:20.941Z,26.80
2017-08-04T13:55:49.223Z,26.80
2017-08-04T13:58:17.608Z,26.80
2017-08-04T14:00:45.953Z,26.80
2017-08-04T14:03:14.302Z,26.70
2017-08-04T14:05:42.568Z,26.60
2017-08-04T14:08:10.849Z,26.60
2017-08-04T14:10:39.165Z,26.70
2017-08-04T14:13:07.497Z,26.50
2017-08-04T14:15:35.783Z,26.60
2017-08-04T14:18:04.261Z,26.60
2017-08-04T14:20:33.500Z,26.70
2017-08-04T14:23:02.153Z,26.70
2017-08-04T14:25:32.792Z,26.70
2017-08-04T14:28:01.688Z,26.60
2017-08-04T14:30:31.885Z,26.50
2017-08-04T14:33:01.371Z,26.50
2017-08-04T14:35:29.768Z,26.30
2017-08-04T14:38:00.044Z,26.20
2017-08-04T14:40:28.429Z,26.10
2017-08-04T14:42:57.345Z,26.10
2017-08-04T14:45:26.342Z,26.10
2017-08-04T14:47:54.793Z,26.10
2017-08-04T14:50:23.264Z,26.10
2017-08-04T14:52:51.832Z,26.10
2017-08-04T14:55:21.426Z,26.10
2017-08-04T14:57:49.799Z,26.10
2017-08-04T15:00:18.123Z,26.10
2017-08-04T15:02:46.481Z,26.10
2017-08-04T15:05:14.882Z,26.20
2017-08-04T15:07:43.282Z,26.10
2017-08-04T15:10:11.513Z,26.20
2017-08-04T15:12:39.995Z,26.20
2017-08-04T15:15:08.729Z,26.20
2017-08-04T15:17:37.374Z,26.10
2017-08-04T15:20:06.927Z,26.10
2017-08-04T15:22:35.305Z,26.10
2017-08-04T15:25:03.833Z,26.20
2017-08-04T15:27:32.109Z,26.10
2017-08-04T15:30:00.562Z,26.10
2017-08-04T15:32:28.785Z,26.20
2017-08-04T15:34:57.139Z,26.20
2017-08-04T15:37:25.852Z,26.30
2017-08-04T15:39:54.119Z,26.30
2017-08-04T15:42:22.456Z,26.30
2017-08-04T15:44:50.725Z,26.30
2017-08-04T15:47:19.799Z,26.20
2017-08-04T15:49:48.120Z,26.20
2017-08-04T15:52:16.500Z,26.30
2017-08-04T15:54:44.857Z,26.20
2017-08-04T15:57:13.856Z,26.40
2017-08-04T15:59:42.263Z,26.40
2017-08-04T16:02:10.555Z,26.50
2017-08-04T16:04:38.969Z,26.60
2017-08-04T16:07:07.594Z,26.60
2017-08-04T16:09:35.912Z,26.60
2017-08-04T16:12:04.519Z,26.60
2017-08-04T16:14:34.147Z,26.60
2017-08-04T16:17:02.742Z,26.60
2017-08-04T16:19:33.137Z,26.60
2017-08-04T16:22:01.403Z,26.60
2017-08-04T16:24:30.598Z,26.50
2017-08-04T16:26:59.961Z,26.60
2017-08-04T16:29:30.185Z,26.60
2017-08-04T16:31:59.194Z,26.60
2017-08-04T16:34:29.391Z,26.60
2017-08-04T16:36:58.156Z,26.50
2017-08-04T16:39:26.664Z,26.60
2017-08-04T16:41:55.104Z,26.50
2017-08-04T16:44:23.737Z,26.50
2017-08-04T16:46:52.443Z,26.40
2017-08-04T16:49:21.523Z,26.40
2017-08-04T16:51:51.102Z,26.40
2017-08-04T16:54:19.474Z,26.40
2017-08-04T16:56:47.704Z,26.30
2017-08-04T16:59:16.879Z,26.20
2017-08-04T17:01:45.176Z,26.20
2017-08-04T17:04:14.377Z,26.20
2017-08-04T17:06:43.414Z,26.10
2017-08-04T17:09:11.842Z,26.10
2017-08-04T17:11:41.287Z,26.10
2017-08-04T17:14:09.668Z,26.10
2017-08-04T17:16:37.896Z,26.10
2017-08-04T17:19:07.191Z,26.00
2017-08-04T17:21:36.251Z,26.00
2017-08-04T17:24:04.666Z,26.00
2017-08-04T17:26:33.713Z,26.00
2017-08-04T17:29:02.123Z,26.00
2017-08-04T17:31:30.398Z,26.00
2017-08-04T17:33:59.972Z,26.00
2017-08-04T17:36:28.403Z,25.90
2017-08-04T17:38:56.742Z,25.90
2017-08-04T17:41:24.969Z,25.80
2017-08-04T17:43:53.316Z,25.90
2017-08-04T17:46:21.755Z,25.80
2017-08-04T17:48:50.065Z,25.70
2017-08-04T17:51:18.287Z,25.70
2017-08-04T17:53:46.533Z,25.60
2017-08-04T17:56:14.780Z,25.60
2017-08-04T17:58:43.133Z,25.50
2017-08-04T18:01:11.459Z,25.50
2017-08-04T18:03:39.744Z,25.40
2017-08-04T18:06:08.129Z,25.30
2017-08-04T18:08:36.493Z,25.20
2017-08-04T18:11:05.546Z,25.20
2017-08-04T18:13:33.900Z,25.20
2017-08-04T18:16:02.282Z,25.10
2017-08-04T18:18:30.577Z,25.10
2017-08-04T18:20:58.856Z,25.10
2017-08-04T18:23:27.095Z,25.10
2017-08-04T18:25:55.377Z,25.10
2017-08-04T18:28:23.737Z,25.00
2017-08-04T18:30:52.079Z,24.90
2017-08-04T18:33:20.305Z,24.80
2017-08-04T18:35:48.563Z,24.90
2017-08-04T18:38:17.590Z,24.90
2017-08-04T18:40:45.830Z,24.90
2017-08-04T18:43:14.139Z,24.90
2017-08-04T18:45:42.709Z,24.80
2017-08-04T18:48:11.117Z,24.80
2017-08-04T18:50:39.368Z,24.80
2017-08-04T18:53:07.667Z,24.80
2017-08-04T18:55:35.922Z,24.80
2017-08-04T18:58:04.394Z,24.80
2017-08-04T19:00:32.897Z,24.80
2017-08-04T19:03:01.221Z,24.70
2017-08-04T19:05:30.193Z,24.60
2017-08-04T19:07:58.576Z,24.60
2017-08-04T19:10:27.161Z,24.60
2017-08-04T19:12:56.183Z,24.50
2017-08-04T19:15:24.563Z,24.50
2017-08-04T19:17:53.672Z,24.50
2017-08-04T19:20:21.911Z,24.50
2017-08-04T19:22:51.206Z,24.40
2017-08-04T19:25:21.001Z,24.40
2017-08-04T19:27:49.258Z,24.30
2017-08-04T19:30:17.877Z,24.30
2017-08-04T19:32:47.501Z,24.30
2017-08-04T19:35:16.909Z,24.30
2017-08-04T19:37:45.258Z,24.30
2017-08-04T19:40:15.895Z,24.30
2017-08-04T19:42:44.272Z,24.20
2017-08-04T19:45:12.754Z,24.20
2017-08-04T19:47:41.879Z,24.10
2017-08-04T19:50:13.134Z,24.10
2017-08-04T19:52:41.482Z,24.10
2017-08-04T19:55:09.951Z,24.10
2017-08-04T19:57:38.223Z,24.20
2017-08-04T20:00:06.660Z,24.20
2017-08-04T20:02:34.969Z,24.20
2017-08-04T20:05:03.467Z,24.10
2017-08-04T20:07:31.854Z,24.10
2017-08-04T20:10:00.145Z,24.10
2017-08-04T20:12:28.709Z,24.10
2017-08-04T20:14:57.277Z,24.10
2017-08-04T20:17:25.817Z,24.10
2017-08-04T20:19:54.171Z,24.10
2017-08-04T20:22:22.444Z,24.10
2017-08-04T20:24:50.707Z,24.10
2017-08-04T20:27:19.250Z,24.10
2017-08-04T20:29:48.453Z,24.00
2017-08-04T20:32:16.713Z,24.00
2017-08-04T20:34:45.167Z,23.90
2017-08-04T20:37:13.490Z,24.00
2017-08-04T20:39:43.101Z,23.70
2017-08-04T20:42:11.529Z,23.70
2017-08-04T20:44:40.645Z,23.60
2017-08-04T20:47:08.873Z,23.60
2017-08-04T20:49:37.127Z,23.70
2017-08-04T20:52:05.680Z,23.60
2017-08-04T20:54:34.176Z,23.60
2017-08-04T20:57:02.699Z,23.50
2017-08-04T20:59:31.690Z,23.40
2017-08-04T21:01:59.994Z,23.40
2017-08-04T21:04:28.220Z,23.40
2017-08-04T21:06:57.257Z,23.30
2017-08-04T21:09:25.563Z,23.30
2017-08-04T21:11:53.906Z,23.30
2017-08-04T21:14:22.246Z,23.20
2017-08-04T21:16:50.515Z,23.20
2017-08-04T21:19:18.746Z,23.10
2017-08-04T21:21:47.252Z,23.10
2017-08-04T21:24:16.385Z,23.00
2017-08-04T21:26:44.817Z,23.00
2017-08-04T21:29:13.378Z,23.00
2017-08-04T21:31:41.729Z,23.00
2017-08-04T21:34:10.135Z,23.00
2017-08-04T21:36:38.497Z,22.90
2017-08-04T21:39:06.764Z,22.80
2017-08-04T21:41:35.031Z,22.80
2017-08-04T21:44:04.189Z,22.70
2017-08-04T21:46:32.418Z,22.70
2017-08-04T21:49:00.763Z,22.70
2017-08-04T21:51:29.127Z,22.70
2017-08-04T21:53:57.353Z,22.60
2017-08-04T21:56:25.663Z,22.50
2017-08-04T21:58:53.925Z,22.50
2017-08-04T22:01:22.224Z,22.40
2017-08-04T22:03:50.462Z,22.40
2017-08-04T22:06:18.783Z,22.30
2017-08-04T22:08:46.989Z,22.30
2017-08-04T22:11:15.322Z,22.30
2017-08-04T22:13:43.629Z,22.30
2017-08-04T22:16:12.655Z,22.20
2017-08-04T22:18:40.937Z,22.20
2017-08-04T22:21:09.221Z,22.10
2017-08-04T22:23:37.478Z,22.10
2017-08-04T22:26:05.714Z,22.10
2017-08-04T22:28:34.117Z,22.00
2017-08-04T22:31:02.383Z,21.90
2017-08-04T22:33:31.226Z,21.90
2017-08-04T22:35:59.609Z,21.80
2017-08-04T22:38:27.983Z,21.80
2017-08-04T22:40:56.320Z,21.80
2017-08-04T22:43:24.613Z,21.70
2017-08-04T22:45:53.822Z,21.70
2017-08-04T22:48:22.053Z,21.70
2017-08-04T22:50:50.523Z,21.60
2017-08-04T22:53:19.699Z,21.60
2017-08-04T22:55:48.778Z,21.60
2017-08-04T22:58:17.085Z,21.50
2017-08-04T23:00:46.105Z,21.50
2017-08-04T23:03:14.351Z,21.40
2017-08-04T23:05:42.677Z,21.40
2017-08-04T23:08:10.923Z,21.50
2017-08-04T23:10:39.168Z,21.50
2017-08-04T23:13:08.230Z,21.40
2017-08-04T23:15:36.512Z,21.40
2017-08-04T23:18:04.786Z,21.40
2017-08-04T23:20:33.088Z,21.40
2017-08-04T23:23:02.155Z,21.30
2017-08-04T23:25:30.506Z,21.30
2017-08-04T23:27:58.823Z,21.40
2017-08-04T23:30:27.132Z,21.30
2017-08-04T23:32:56.300Z,21.30
2017-08-04T23:35:25.424Z,21.30
2017-08-04T23:37:54.537Z,21.20
2017-08-04T23:40:23.373Z,21.20
2017-08-04T23:42:51.773Z,21.30
2017-08-04T23:45:20.002Z,21.20
2017-08-04T23:47:48.245Z,21.20
2017-08-04T23:50:16.688Z,21.20
2017-08-04T23:52:44.949Z,21.20
2017-08-04T23:55:13.276Z,21.20
2017-08-04T23:57:41.540Z,21.20
